Time;durP1;ratioP1;P1;durP2;ratioP2;P2;SDS_P1;SDS_P2;PMS_P1;PMS_P2;Temp;Humidity;BMP_temperature;BMP_pressure;BME280_temperature;BME280_humidity;BME280_pressure;Samples;Min_cycle;Max_cycle;Signal;HPM_P1;HPM_P2
2021/11/19 06:50:27;;;;;;;10.73;7.68;;;;;;;;;;10508336;28;20481;-86
2021/11/19 06:55:29;;;;;;;17.33;12.75;;;;;;;;;;10496297;28;20025;-87
2021/11/19 07:00:31;;;;;;;10.60;7.90;;;;;;;;;;10495464;28;20078;-87
2021/11/19 07:05:33;;;;;;;12.02;9.43;;;;;;;;;;10492867;28;20033;-86
2021/11/19 07:10:34;;;;;;;22.80;18.15;;;;;;;;;;10492414;28;20110;-87
2021/11/19 07:15:35;;;;;;;24.33;19.92;;;;;;;;;;10492606;28;20040;-87
2021/11/19 07:20:40;;;;;;;7.63;6.82;;;;;;;;;;10494378;28;20021;-87
2021/11/19 07:25:43;;;;;;;9.27;7.60;;;;;;;;;;10493881;28;20036;-86
2021/11/19 07:30:56;;;;;;;11.55;10.13;;;;;;;;;;10494256;28;20071;-86
2021/11/19 07:35:58;;;;;;;10.15;7.93;;;;;;;;;;10497011;28;20052;-86
2021/11/19 07:40:59;;;;;;;14.32;12.05;;;;;;;;;;10497302;28;20063;-86
2021/11/19 07:46:01;;;;;;;14.18;12.63;;;;;;;;;;10524193;28;20420;-86
2021/11/19 07:51:06;;;;;;;11.35;10.15;;;;;;;;;;10490835;28;20033;-86
2021/11/19 07:56:14;;;;;;;16.98;13.13;;;;;;;;;;10490551;28;20459;-86
2021/11/19 08:01:15;;;;;;;9.43;7.57;;;;;;;;;;10469130;28;20032;-86
2021/11/19 08:06:16;;;;;;;;;;;;;;;;;;10472408;28;20025;-83
2021/11/19 08:11:18;;;;;;;7.20;6.25;;;;;;;;;;10470458;28;19962;-87
2021/11/19 08:16:33;;;;;;;9.57;8.57;;;;;;;;;;10458788;22;20498;-86
2021/11/19 08:21:47;;;;;;;11.38;9.15;;;;;;;;;;10429373;28;20052;-88
2021/11/19 08:27:16;;;;;;;10.63;8.82;;;;;;;;;;10415150;28;20044;-87
2021/11/19 08:38:16;;;;;;;12.50;10.63;;;;;;;;;;10426974;28;20037;-88
2021/11/19 08:44:06;;;;;;;16.08;12.27;;;;;;;;;;10423036;28;20041;-87
2021/11/19 08:55:16;;;;;;;15.32;12.13;;;;;;;;;;10286297;29;20039;-86
2021/11/19 09:17:45;;;;;;;11.75;10.07;;;;;;;;;;10328433;28;20043;-89
2021/11/19 09:23:33;;;;;;;13.88;10.85;;;;;;;;;;10325447;28;20033;-88
2021/11/19 09:29:22;;;;;;;13.40;10.93;;;;;;;;;;10428439;28;20090;-88
2021/11/19 09:40:17;;;;;;;12.97;10.97;;;;;;;;;;10426287;28;20026;-87
2021/11/19 09:57:27;;;;;;;13.70;11.05;;;;;;;;;;10424168;28;20041;-87
2021/11/19 10:25:33;;;;;;;15.63;12.00;;;;;;;;;;10424881;28;20101;-87
2021/11/19 10:53:50;;;;;;;18.40;15.67;;;;;;;;;;10442178;28;20022;-83
2021/11/19 11:05:15;;;;;;;16.13;14.20;;;;;;;;;;10429950;28;20037;-86
2021/11/19 11:16:28;;;;;;;20.05;17.85;;;;;;;;;;10297509;28;20046;-87
2021/11/19 11:22:04;;;;;;;16.30;13.70;;;;;;;;;;10282583;28;20047;-87
2021/11/19 11:27:42;;;;;;;21.27;17.83;;;;;;;;;;10318032;28;20097;-87
2021/11/19 11:33:26;;;;;;;18.38;14.80;;;;;;;;;;10301331;28;20038;-87
2021/11/19 11:56:08;;;;;;;26.17;19.65;;;;;;;;;;10304842;28;20022;-87
2021/11/19 12:01:38;;;;;;;13.80;12.30;;;;;;;;;;10292359;28;20035;-87
2021/11/19 12:12:49;;;;;;;19.60;16.17;;;;;;;;;;10314776;28;20091;-88
2021/11/19 12:51:54;;;;;;;15.43;11.88;;;;;;;;;;10390358;28;20057;-83
2021/11/19 12:57:10;;;;;;;15.82;13.00;;;;;;;;;;10388580;28;20038;-85
2021/11/19 13:02:31;;;;;;;16.55;12.40;;;;;;;;;;10390719;28;20396;-84
2021/11/19 13:07:36;;;;;;;15.75;11.80;;;;;;;;;;10396069;28;20408;-84
2021/11/19 13:13:05;;;;;;;15.85;12.35;;;;;;;;;;10391600;28;20559;-84
2021/11/19 13:18:29;;;;;;;14.32;12.20;;;;;;;;;;10391362;28;20045;-85
2021/11/19 13:23:47;;;;;;;15.05;12.65;;;;;;;;;;10391161;28;20061;-84
2021/11/19 13:28:53;;;;;;;15.77;12.80;;;;;;;;;;10391416;28;20026;-84
2021/11/19 13:34:07;;;;;;;15.95;12.07;;;;;;;;;;10395634;28;20066;-82
2021/11/19 13:39:27;;;;;;;14.63;12.00;;;;;;;;;;10396755;28;20022;-84
2021/11/19 13:44:47;;;;;;;14.30;11.07;;;;;;;;;;10389197;28;20032;-85
2021/11/19 13:49:52;;;;;;;16.20;11.38;;;;;;;;;;10388973;28;20026;-84
2021/11/19 13:55:11;;;;;;;13.35;11.40;;;;;;;;;;10391015;28;20041;-85
2021/11/19 14:06:18;;;;;;;16.58;12.55;;;;;;;;;;10387882;28;20026;-86
2021/11/19 14:11:50;;;;;;;14.02;10.40;;;;;;;;;;10387350;28;20041;-86
2021/11/19 14:22:41;;;;;;;11.27;9.75;;;;;;;;;;10403523;28;20025;-86
2021/11/19 14:27:47;;;;;;;14.57;10.57;;;;;;;;;;10411360;28;20056;-85
2021/11/19 14:33:31;;;;;;;15.52;12.43;;;;;;;;;;10407583;28;20026;-87
2021/11/19 15:23:49;;;;;;;13.05;10.07;;;;;;;;;;10483860;28;20108;-87
2021/11/19 16:25:56;;;;;;;10.47;6.27;;;;;;;;;;10517898;28;20119;-85
2021/11/19 16:31:23;;;;;;;11.90;9.35;;;;;;;;;;10500357;28;20100;-85
2021/11/19 16:53:30;;;;;;;16.63;13.15;;;;;;;;;;10531629;28;20032;-86
2021/11/19 16:59:08;;;;;;;10.77;8.98;;;;;;;;;;10526878;28;20044;-86
2021/11/19 17:04:29;;;;;;;11.95;9.80;;;;;;;;;;10506943;28;20103;-86
2021/11/19 20:18:25;;;;;;;7.13;6.43;;;;;;;;;;10482855;22;20502;-84
2021/11/19 20:23:28;;;;;;;9.27;8.15;;;;;;;;;;10469886;28;20040;-83
2021/11/19 20:28:38;;;;;;;8.88;7.25;;;;;;;;;;10456662;28;20037;-84
2021/11/19 20:33:42;;;;;;;8.25;7.20;;;;;;;;;;10474108;28;20309;-84
2021/11/19 20:38:43;;;;;;;8.15;7.03;;;;;;;;;;10474702;28;20056;-84
2021/11/19 20:43:46;;;;;;;7.85;6.78;;;;;;;;;;10473463;28;20128;-83
2021/11/19 20:48:51;;;;;;;8.80;7.88;;;;;;;;;;10470469;28;20398;-84
2021/11/19 20:53:59;;;;;;;8.32;7.53;;;;;;;;;;10473923;28;20040;-83
2021/11/19 20:59:02;;;;;;;9.90;8.88;;;;;;;;;;10471545;28;20109;-84
2021/11/19 21:04:04;;;;;;;12.50;10.93;;;;;;;;;;10469932;28;20037;-83
2021/11/19 21:09:07;;;;;;;15.73;13.48;;;;;;;;;;10450881;28;20041;-83
2021/11/19 21:14:11;;;;;;;14.65;12.23;;;;;;;;;;10452676;28;20040;-84
2021/11/19 21:19:14;;;;;;;20.88;16.50;;;;;;;;;;10469482;28;20114;-86
2021/11/19 21:24:15;;;;;;;19.50;17.40;;;;;;;;;;10444938;28;20379;-86
2021/11/19 21:29:17;;;;;;;18.40;16.48;;;;;;;;;;10443498;28;20103;-86
2021/11/19 21:34:20;;;;;;;19.13;15.77;;;;;;;;;;10454349;28;20446;-85
2021/11/19 21:39:25;;;;;;;18.13;15.45;;;;;;;;;;10460743;28;20087;-86
2021/11/19 21:44:28;;;;;;;18.00;16.05;;;;;;;;;;10427090;28;20041;-86
2021/11/19 21:49:30;;;;;;;19.23;16.55;;;;;;;;;;10471676;28;20033;-86
2021/11/19 21:54:45;;;;;;;16.90;15.10;;;;;;;;;;10479430;28;20410;-86
2021/11/19 21:59:49;;;;;;;16.83;14.77;;;;;;;;;;10465142;28;20108;-86
2021/11/19 22:04:51;;;;;;;15.63;13.68;;;;;;;;;;10447037;28;20033;-86
2021/11/19 22:09:55;;;;;;;16.10;13.93;;;;;;;;;;10445471;28;20132;-86
2021/11/19 22:14:56;;;;;;;15.32;13.68;;;;;;;;;;10445456;28;20039;-86
2021/11/19 22:19:58;;;;;;;15.30;13.10;;;;;;;;;;10446671;28;20044;-86
2021/11/19 22:24:59;;;;;;;11.73;10.48;;;;;;;;;;10447388;28;20517;-86
2021/11/19 22:30:02;;;;;;;15.32;12.13;;;;;;;;;;10446989;28;20051;-86
2021/11/19 22:35:04;;;;;;;12.75;11.23;;;;;;;;;;10447425;28;20092;-86
2021/11/19 22:40:09;;;;;;;16.30;13.32;;;;;;;;;;10462148;28;20037;-86
2021/11/19 22:45:12;;;;;;;9.27;8.27;;;;;;;;;;10427465;28;20048;-86
2021/11/19 22:50:19;;;;;;;10.13;9.13;;;;;;;;;;10462081;28;20029;-86
2021/11/19 22:55:20;;;;;;;16.27;13.23;;;;;;;;;;10428945;28;20107;-87
2021/11/19 23:00:21;;;;;;;8.73;7.72;;;;;;;;;;10445524;28;20041;-86
2021/11/19 23:05:28;;;;;;;9.60;8.25;;;;;;;;;;10463967;28;20041;-86
2021/11/19 23:10:31;;;;;;;13.20;11.05;;;;;;;;;;10460944;28;20052;-86
2021/11/19 23:15:35;;;;;;;13.25;10.13;;;;;;;;;;10462743;28;20048;-86
2021/11/19 23:20:38;;;;;;;6.57;5.85;;;;;;;;;;10444095;28;20037;-86
2021/11/19 23:25:48;;;;;;;8.48;6.32;;;;;;;;;;10463078;28;20072;-86
2021/11/19 23:30:53;;;;;;;11.60;9.85;;;;;;;;;;10449560;28;20402;-86
2021/11/19 23:36:00;;;;;;;6.43;5.72;;;;;;;;;;10468028;28;20111;-86
2021/11/19 23:41:01;;;;;;;6.22;5.55;;;;;;;;;;10468043;28;20056;-86
2021/11/19 23:46:04;;;;;;;6.70;6.00;;;;;;;;;;10467348;28;20033;-86
2021/11/19 23:51:06;;;;;;;7.00;6.15;;;;;;;;;;10465539;28;20029;-86
2021/11/19 23:56:07;;;;;;;7.40;5.90;;;;;;;;;;10465723;28;20039;-85
